createdAt,value
2017-10-17T00:01:30.734Z,11.83
2017-10-17T00:03:59.031Z,12.60
2017-10-17T00:06:27.353Z,12.40
2017-10-17T00:08:55.627Z,12.23
2017-10-17T00:11:26.013Z,12.40
2017-10-17T00:13:54.294Z,11.67
2017-10-17T00:16:23.471Z,12.23
2017-10-17T00:18:51.741Z,12.70
2017-10-17T00:21:19.981Z,11.53
2017-10-17T00:23:48.274Z,11.77
2017-10-17T00:26:16.559Z,12.40
2017-10-17T00:28:44.825Z,12.80
2017-10-17T00:31:13.682Z,12.90
2017-10-17T00:33:42.744Z,12.70
2017-10-17T00:36:18.650Z,12.83
2017-10-17T00:38:49.757Z,12.50
2017-10-17T00:41:18.052Z,12.60
2017-10-17T00:43:46.337Z,13.23
2017-10-17T00:46:17.294Z,13.57
2017-10-17T00:48:45.577Z,13.50
2017-10-17T00:51:16.200Z,14.77
2017-10-17T00:53:44.691Z,12.57
2017-10-17T00:56:13.083Z,13.40
2017-10-17T00:58:41.410Z,13.73
2017-10-17T01:01:09.707Z,12.53
2017-10-17T01:03:38.756Z,13.53
2017-10-17T01:06:07.094Z,13.40
2017-10-17T01:08:36.140Z,14.40
2017-10-17T01:11:04.442Z,13.90
2017-10-17T01:13:34.302Z,13.50
2017-10-17T01:16:03.546Z,14.40
2017-10-17T01:18:31.820Z,14.17
2017-10-17T01:21:02.781Z,14.33
2017-10-17T01:23:36.796Z,15.63
2017-10-17T01:26:10.600Z,17.00
2017-10-17T01:28:39.658Z,16.20
2017-10-17T01:31:07.939Z,15.50
2017-10-17T01:33:36.667Z,16.20
2017-10-17T01:36:05.721Z,16.57
2017-10-17T01:38:49.531Z,15.10
2017-10-17T01:41:17.801Z,16.10
2017-10-17T01:43:46.936Z,15.97
2017-10-17T01:46:18.555Z,14.33
2017-10-17T01:49:03.683Z,17.47
2017-10-17T01:51:34.736Z,14.87
2017-10-17T01:54:15.379Z,16.90
2017-10-17T01:56:43.857Z,16.27
2017-10-17T01:59:25.772Z,17.10
2017-10-17T02:01:54.042Z,18.10
2017-10-17T02:04:23.061Z,17.60
2017-10-17T02:06:51.373Z,16.13
2017-10-17T02:09:20.430Z,15.67
2017-10-17T02:11:48.715Z,15.70
2017-10-17T02:14:17.759Z,16.00
2017-10-17T02:16:46.012Z,14.43
2017-10-17T02:19:22.194Z,15.67
2017-10-17T02:21:52.425Z,16.60
2017-10-17T02:24:31.423Z,17.03
2017-10-17T02:27:01.059Z,15.47
2017-10-17T02:29:30.863Z,16.97
2017-10-17T02:31:59.300Z,16.70
2017-10-17T02:34:37.503Z,15.20
2017-10-17T02:37:06.571Z,17.10
2017-10-17T02:39:34.810Z,14.47
2017-10-17T02:42:03.859Z,16.50
2017-10-17T02:44:32.121Z,14.63
2017-10-17T02:47:01.897Z,14.53
2017-10-17T02:49:41.944Z,15.33
2017-10-17T02:55:14.955Z,15.40
2017-10-17T02:57:44.944Z,16.20
2017-10-17T03:00:16.029Z,14.20
2017-10-17T03:02:48.590Z,14.90
2017-10-17T03:05:17.749Z,15.57
2017-10-17T03:07:55.916Z,16.23
2017-10-17T03:10:25.065Z,15.90
2017-10-17T03:12:53.326Z,16.37
2017-10-17T03:15:23.476Z,16.93
2017-10-17T03:17:52.560Z,15.77
2017-10-17T03:20:21.691Z,15.97
2017-10-17T03:22:50.880Z,15.43
2017-10-17T03:25:19.158Z,17.20
2017-10-17T03:27:48.392Z,17.37
2017-10-17T03:30:16.719Z,15.63
2017-10-17T03:32:45.132Z,17.60
2017-10-17T03:35:16.131Z,16.77
2017-10-17T03:40:50.668Z,16.50
2017-10-17T03:43:43.605Z,15.97
2017-10-17T03:46:11.764Z,14.87
2017-10-17T03:48:40.520Z,16.20
2017-10-17T03:51:08.666Z,15.70
2017-10-17T03:53:46.470Z,14.50
2017-10-17T03:56:17.450Z,14.93
2017-10-17T03:58:46.034Z,13.90
2017-10-17T04:01:14.049Z,13.87
2017-10-17T04:03:45.864Z,15.30
2017-10-17T04:06:36.488Z,15.40
2017-10-17T04:09:05.254Z,16.10
2017-10-17T04:11:33.278Z,16.20
2017-10-17T04:14:13.312Z,14.30
2017-10-17T04:23:19.464Z,17.90
2017-10-17T04:25:49.845Z,14.97
2017-10-17T04:28:28.507Z,17.77
2017-10-17T04:31:03.170Z,16.97
2017-10-17T04:33:40.992Z,16.13
2017-10-17T04:36:25.602Z,17.67
2017-10-17T04:38:53.618Z,17.40
2017-10-17T04:41:23.327Z,17.80
2017-10-17T04:44:12.831Z,17.10
2017-10-17T04:46:42.426Z,17.47
2017-10-17T04:49:16.693Z,16.90
2017-10-17T04:51:56.555Z,18.50
2017-10-17T04:54:29.268Z,15.03
2017-10-17T04:57:01.078Z,16.37
2017-10-17T04:59:29.978Z,18.27
2017-10-17T05:01:59.695Z,17.43
2017-10-17T05:07:32.240Z,17.27
2017-10-17T05:10:03.546Z,16.53
2017-10-17T05:12:40.238Z,17.03
2017-10-17T05:15:09.181Z,18.20
2017-10-17T05:17:50.566Z,16.10
2017-10-17T05:20:26.193Z,18.47
2017-10-17T05:23:11.887Z,15.90
2017-10-17T05:25:40.659Z,17.00
2017-10-17T05:28:25.262Z,16.40
2017-10-17T05:30:59.979Z,16.30
2017-10-17T05:33:35.362Z,17.67
2017-10-17T05:36:03.389Z,15.20
2017-10-17T05:38:32.201Z,15.47
2017-10-17T05:41:00.230Z,16.10
2017-10-17T05:43:44.732Z,16.80
2017-10-17T05:46:12.730Z,15.90
2017-10-17T05:48:40.770Z,18.00
2017-10-17T05:51:14.715Z,18.70
2017-10-17T05:53:43.185Z,16.30
2017-10-17T05:56:11.173Z,16.33
2017-10-17T05:58:39.199Z,15.87
2017-10-17T06:01:07.230Z,17.80
2017-10-17T06:03:35.332Z,20.00
2017-10-17T06:06:04.143Z,17.00
2017-10-17T06:08:32.170Z,17.13
2017-10-17T06:11:00.191Z,16.50
2017-10-17T06:13:28.227Z,17.40
2017-10-17T06:15:57.763Z,17.10
2017-10-17T06:18:26.099Z,15.20
2017-10-17T06:20:55.322Z,16.37
2017-10-17T06:23:24.422Z,16.70
2017-10-17T06:25:52.703Z,15.73
2017-10-17T06:28:20.974Z,16.57
2017-10-17T06:30:49.498Z,16.70
2017-10-17T06:33:17.750Z,17.20
2017-10-17T06:35:46.054Z,18.23
2017-10-17T06:38:15.112Z,17.47
2017-10-17T06:40:44.936Z,15.40
2017-10-17T06:43:13.166Z,15.30
2017-10-17T06:45:41.472Z,17.63
2017-10-17T06:48:09.735Z,16.77
2017-10-17T06:50:37.994Z,17.23
2017-10-17T06:53:06.293Z,18.07
2017-10-17T06:55:34.630Z,16.30
2017-10-17T06:58:02.890Z,18.63
2017-10-17T07:00:31.138Z,18.00
2017-10-17T07:02:59.447Z,18.70
2017-10-17T07:05:27.756Z,17.27
2017-10-17T07:07:56.842Z,16.30
2017-10-17T07:10:25.178Z,18.17
2017-10-17T07:12:53.460Z,17.87
2017-10-17T07:15:21.697Z,17.53
2017-10-17T07:17:49.990Z,17.30
2017-10-17T07:20:18.280Z,16.20
2017-10-17T07:22:47.413Z,17.47
2017-10-17T07:25:15.694Z,16.97
2017-10-17T07:27:44.523Z,15.73
2017-10-17T07:30:13.625Z,18.23
2017-10-17T07:32:41.891Z,17.80
2017-10-17T07:35:10.151Z,15.83
2017-10-17T07:37:39.202Z,17.10
2017-10-17T07:40:07.468Z,15.43
2017-10-17T07:42:35.743Z,18.27
2017-10-17T07:45:04.048Z,16.20
2017-10-17T07:47:33.058Z,17.60
2017-10-17T07:50:01.327Z,16.50
2017-10-17T07:52:29.561Z,15.53
2017-10-17T07:54:57.823Z,17.73
2017-10-17T07:57:26.100Z,18.70
2017-10-17T07:59:54.382Z,16.33
2017-10-17T08:02:23.421Z,17.70
2017-10-17T08:04:51.713Z,19.30
2017-10-17T08:07:20.005Z,18.33
2017-10-17T08:09:48.299Z,17.87
2017-10-17T08:12:16.678Z,16.47
2017-10-17T08:14:44.972Z,18.37
2017-10-17T08:17:13.210Z,17.10
2017-10-17T08:19:42.272Z,17.67
2017-10-17T08:22:11.124Z,18.60
2017-10-17T08:24:39.411Z,19.50
2017-10-17T08:27:07.674Z,20.17
2017-10-17T08:29:36.601Z,16.60
2017-10-17T08:32:04.845Z,19.20
2017-10-17T08:34:33.119Z,16.87
2017-10-17T08:37:03.050Z,18.93
2017-10-17T08:39:32.288Z,21.80
2017-10-17T08:42:00.591Z,19.13
2017-10-17T08:44:28.843Z,18.93
2017-10-17T08:46:57.111Z,20.53
2017-10-17T08:49:25.816Z,19.67
2017-10-17T08:51:54.121Z,20.27
2017-10-17T08:54:22.406Z,20.30
2017-10-17T08:56:51.453Z,23.40
2017-10-17T08:59:19.739Z,20.37
2017-10-17T09:01:48.230Z,20.37
2017-10-17T09:04:17.087Z,18.10
2017-10-17T09:06:45.355Z,17.73
2017-10-17T09:09:14.454Z,18.20
2017-10-17T09:11:43.443Z,16.60
2017-10-17T09:14:11.710Z,17.83
2017-10-17T09:16:40.001Z,19.27
2017-10-17T09:19:09.670Z,14.93
2017-10-17T09:21:37.905Z,15.80
2017-10-17T09:24:06.535Z,16.70
2017-10-17T09:26:34.796Z,15.87
2017-10-17T09:29:03.185Z,16.93
2017-10-17T09:31:34.257Z,15.07
2017-10-17T09:34:04.027Z,14.60
2017-10-17T09:36:33.893Z,16.87
2017-10-17T09:39:03.101Z,18.67
2017-10-17T09:41:32.967Z,15.47
2017-10-17T09:44:03.297Z,15.67
2017-10-17T09:46:32.509Z,15.60
2017-10-17T09:49:01.472Z,15.40
2017-10-17T09:51:31.941Z,14.37
2017-10-17T09:54:00.559Z,15.90
2017-10-17T09:56:29.399Z,14.47
2017-10-17T09:58:57.630Z,15.07
2017-10-17T10:01:25.915Z,15.33
2017-10-17T10:03:55.007Z,17.13
2017-10-17T10:06:23.299Z,17.00
2017-10-17T10:08:51.581Z,15.33
2017-10-17T10:11:19.839Z,15.27
2017-10-17T10:13:49.005Z,16.50
2017-10-17T10:16:17.287Z,18.40
2017-10-17T10:18:45.578Z,14.63
2017-10-17T10:21:13.936Z,14.80
2017-10-17T10:23:43.730Z,14.97
2017-10-17T10:26:12.771Z,15.00
2017-10-17T10:28:41.090Z,17.00
2017-10-17T10:31:10.447Z,14.73
2017-10-17T10:33:38.694Z,15.47
2017-10-17T10:36:07.753Z,16.57
2017-10-17T10:38:36.894Z,15.80
2017-10-17T10:41:05.198Z,14.73
2017-10-17T10:43:33.447Z,15.03
2017-10-17T10:46:03.261Z,14.60
2017-10-17T10:48:32.307Z,15.27
2017-10-17T10:51:00.625Z,17.00
2017-10-17T10:53:29.626Z,14.70
2017-10-17T10:55:58.704Z,15.13
2017-10-17T10:58:27.003Z,18.47
2017-10-17T11:00:56.037Z,15.93
2017-10-17T11:03:24.304Z,16.07
2017-10-17T11:05:52.591Z,16.27
2017-10-17T11:08:20.863Z,13.77
2017-10-17T11:10:49.199Z,17.30
2017-10-17T11:13:18.213Z,14.50
2017-10-17T11:15:47.230Z,15.23
2017-10-17T11:18:15.498Z,12.90
2017-10-17T11:20:43.787Z,14.20
2017-10-17T11:23:12.125Z,15.10
2017-10-17T11:25:41.141Z,15.30
2017-10-17T11:28:09.399Z,15.60
2017-10-17T11:30:37.782Z,14.07
2017-10-17T11:33:06.098Z,14.30
2017-10-17T11:35:34.387Z,15.50
2017-10-17T11:38:02.666Z,15.07
2017-10-17T11:40:42.908Z,15.43
2017-10-17T11:43:24.060Z,13.40
2017-10-17T11:45:52.348Z,14.83
2017-10-17T11:48:20.632Z,14.33
2017-10-17T11:50:49.000Z,13.77
2017-10-17T11:53:17.268Z,13.57
2017-10-17T11:55:47.211Z,13.43
2017-10-17T11:58:15.500Z,14.37
2017-10-17T12:00:43.865Z,13.50
2017-10-17T12:03:13.131Z,15.20
2017-10-17T12:05:41.418Z,13.93
2017-10-17T12:08:10.471Z,14.23
2017-10-17T12:10:38.782Z,16.80
2017-10-17T12:13:07.974Z,13.57
2017-10-17T12:15:37.047Z,13.90
2017-10-17T12:18:05.296Z,13.80
2017-10-17T12:20:33.550Z,16.63
2017-10-17T12:23:01.862Z,15.10
2017-10-17T12:25:30.148Z,14.00
2017-10-17T12:27:58.432Z,14.70
2017-10-17T12:30:26.672Z,14.40
2017-10-17T12:32:54.973Z,17.27
2017-10-17T12:35:23.240Z,15.37
2017-10-17T12:37:52.380Z,15.43
2017-10-17T12:40:20.675Z,13.17
2017-10-17T12:42:49.678Z,15.83
2017-10-17T12:45:19.270Z,14.57
2017-10-17T12:47:47.551Z,16.80
2017-10-17T12:50:15.823Z,15.17
2017-10-17T12:52:44.119Z,14.37
2017-10-17T12:55:12.429Z,14.83
2017-10-17T12:57:40.734Z,14.57
2017-10-17T13:00:09.255Z,13.70
2017-10-17T13:02:37.633Z,15.13
2017-10-17T13:05:05.999Z,13.90
2017-10-17T13:07:34.283Z,16.03
2017-10-17T13:10:03.352Z,17.70
2017-10-17T13:12:31.599Z,16.10
2017-10-17T13:14:59.870Z,16.50
2017-10-17T13:17:29.241Z,14.77
2017-10-17T13:19:58.863Z,14.70
2017-10-17T13:22:27.140Z,15.30
2017-10-17T13:24:55.399Z,14.90
2017-10-17T13:27:24.471Z,16.00
2017-10-17T13:29:52.746Z,14.60
2017-10-17T13:32:22.008Z,15.47
2017-10-17T13:34:50.686Z,13.80
2017-10-17T13:37:19.633Z,15.67
2017-10-17T13:39:51.008Z,16.80
2017-10-17T13:42:20.285Z,14.77
2017-10-17T13:44:50.282Z,16.27
2017-10-17T13:47:21.062Z,17.03
2017-10-17T13:49:51.143Z,17.53
2017-10-17T13:52:19.427Z,18.70
2017-10-17T13:54:47.684Z,16.07
2017-10-17T13:57:16.817Z,15.10
2017-10-17T13:59:45.081Z,14.27
2017-10-17T14:02:13.782Z,15.80
2017-10-17T14:04:43.532Z,15.67
2017-10-17T14:07:12.341Z,14.80
2017-10-17T14:09:40.776Z,15.67
2017-10-17T14:12:10.987Z,17.10
2017-10-17T14:14:40.021Z,14.10
2017-10-17T14:17:09.259Z,17.00
2017-10-17T14:19:38.379Z,16.40
2017-10-17T14:22:07.236Z,17.93
2017-10-17T14:24:35.521Z,18.17
2017-10-17T14:27:03.861Z,17.00
2017-10-17T14:29:32.571Z,18.50
2017-10-17T14:32:00.872Z,18.50
2017-10-17T14:34:29.133Z,19.00
2017-10-17T14:36:58.360Z,20.00
2017-10-17T14:39:26.898Z,18.43
2017-10-17T14:41:55.229Z,20.70
2017-10-17T14:44:23.461Z,20.50
2017-10-17T14:46:51.756Z,20.03
2017-10-17T14:49:20.048Z,20.23
2017-10-17T14:51:49.511Z,20.40
2017-10-17T14:54:17.805Z,20.50
2017-10-17T14:56:49.621Z,27.37
2017-10-17T14:59:19.298Z,21.00
2017-10-17T15:01:48.304Z,21.40
2017-10-17T15:04:20.430Z,22.87
2017-10-17T15:06:49.694Z,21.60
2017-10-17T15:09:18.284Z,29.63
2017-10-17T15:11:47.331Z,21.83
2017-10-17T15:14:15.612Z,22.40
2017-10-17T15:16:44.531Z,21.93
2017-10-17T15:19:13.589Z,22.90
2017-10-17T15:21:42.178Z,23.47
2017-10-17T15:24:11.646Z,23.97
2017-10-17T15:26:40.826Z,25.97
2017-10-17T15:29:10.941Z,23.90
2017-10-17T15:31:39.275Z,24.23
2017-10-17T15:34:07.589Z,24.10
2017-10-17T15:36:35.814Z,23.70
2017-10-17T15:39:04.141Z,25.13
2017-10-17T15:41:32.415Z,26.80
2017-10-17T15:44:01.952Z,24.47
2017-10-17T15:46:30.991Z,23.50
2017-10-17T15:48:59.275Z,26.50
2017-10-17T15:51:29.932Z,26.40
2017-10-17T15:53:58.969Z,26.47
2017-10-17T15:56:27.268Z,27.07
2017-10-17T15:58:55.537Z,27.80
2017-10-17T16:01:23.817Z,26.23
2017-10-17T16:03:52.187Z,28.73
2017-10-17T16:06:20.476Z,28.90
2017-10-17T16:08:49.582Z,29.37
2017-10-17T16:11:18.807Z,31.20
2017-10-17T16:13:48.461Z,28.43
2017-10-17T16:16:16.759Z,35.30
2017-10-17T16:18:45.763Z,31.97
2017-10-17T16:21:14.041Z,28.30
2017-10-17T16:23:44.210Z,29.77
2017-10-17T16:26:13.406Z,29.20
2017-10-17T16:28:43.310Z,25.87
2017-10-17T16:31:11.661Z,27.07
2017-10-17T16:33:39.951Z,29.47
2017-10-17T16:36:09.233Z,26.97
2017-10-17T16:38:37.595Z,29.93
2017-10-17T16:41:06.392Z,29.63
2017-10-17T16:43:35.490Z,32.37
2017-10-17T16:46:03.778Z,34.00
2017-10-17T16:48:32.196Z,33.43
2017-10-17T16:51:00.445Z,28.13
2017-10-17T16:53:28.702Z,31.17
2017-10-17T16:55:57.068Z,32.00
2017-10-17T16:58:25.372Z,32.80
2017-10-17T17:00:53.774Z,31.60
2017-10-17T17:03:23.010Z,29.03
2017-10-17T17:05:53.431Z,29.43
2017-10-17T17:08:22.459Z,29.03
2017-10-17T17:10:50.761Z,27.90
2017-10-17T17:13:19.056Z,29.10
2017-10-17T17:15:47.321Z,29.90
2017-10-17T17:18:16.405Z,35.20
2017-10-17T17:20:44.744Z,32.50
2017-10-17T17:23:13.213Z,32.63
2017-10-17T17:25:42.708Z,30.43
2017-10-17T17:28:11.139Z,29.00
2017-10-17T17:30:40.548Z,26.07
2017-10-17T17:33:08.808Z,26.83
2017-10-17T17:35:38.330Z,28.07
2017-10-17T17:38:06.598Z,24.53
2017-10-17T17:40:35.918Z,26.00
2017-10-17T17:43:04.674Z,26.13
2017-10-17T17:45:34.279Z,28.70
2017-10-17T17:48:02.592Z,29.63
2017-10-17T17:50:33.923Z,26.90
2017-10-17T17:53:02.693Z,25.13
2017-10-17T17:55:32.001Z,109.60
2017-10-17T17:58:01.037Z,39.77
2017-10-17T18:00:29.364Z,23.50
2017-10-17T18:02:58.521Z,25.50
2017-10-17T18:05:27.433Z,36.67
2017-10-17T18:07:56.309Z,25.13
2017-10-17T18:10:26.462Z,26.20
2017-10-17T18:12:55.528Z,67.60
2017-10-17T18:15:24.722Z,23.70
2017-10-17T18:17:53.121Z,24.50
2017-10-17T18:20:21.435Z,27.27
2017-10-17T18:22:50.018Z,28.60
2017-10-17T18:25:19.273Z,31.50
2017-10-17T18:27:47.665Z,29.10
2017-10-17T18:30:16.722Z,25.93
2017-10-17T18:32:45.062Z,26.00
2017-10-17T18:35:14.417Z,25.63
2017-10-17T18:37:43.426Z,26.37
2017-10-17T18:40:12.540Z,25.30
2017-10-17T18:42:42.153Z,27.27
2017-10-17T18:45:11.440Z,24.27
2017-10-17T18:47:41.458Z,26.60
2017-10-17T18:50:10.731Z,23.60
2017-10-17T18:52:39.152Z,22.80
2017-10-17T18:55:07.522Z,21.13
2017-10-17T18:57:37.481Z,22.70
2017-10-17T19:00:06.715Z,20.83
2017-10-17T19:02:35.037Z,21.87
2017-10-17T19:05:04.998Z,21.13
2017-10-17T19:07:33.889Z,21.20
2017-10-17T19:10:02.231Z,19.30
2017-10-17T19:12:31.986Z,20.90
2017-10-17T19:15:03.151Z,24.97
2017-10-17T19:17:31.453Z,23.43
2017-10-17T19:20:01.805Z,24.63
2017-10-17T19:22:30.200Z,23.33
2017-10-17T19:24:59.596Z,23.27
2017-10-17T19:27:27.872Z,19.97
2017-10-17T19:29:57.133Z,19.43
2017-10-17T19:32:26.546Z,21.47
2017-10-17T19:34:56.179Z,22.20
2017-10-17T19:37:24.624Z,21.73
2017-10-17T19:39:52.858Z,19.67
2017-10-17T19:42:21.902Z,22.10
2017-10-17T19:44:50.184Z,22.30
2017-10-17T19:47:19.340Z,23.50
2017-10-17T19:49:48.448Z,22.97
2017-10-17T19:52:17.358Z,24.37
2017-10-17T19:54:46.425Z,23.77
2017-10-17T19:57:14.890Z,23.17
2017-10-17T19:59:43.800Z,22.80
2017-10-17T20:02:12.075Z,20.97
2017-10-17T20:04:41.274Z,21.10
2017-10-17T20:07:09.615Z,21.50
2017-10-17T20:09:38.711Z,22.40
2017-10-17T20:12:07.436Z,22.47
2017-10-17T20:14:36.531Z,22.07
2017-10-17T20:17:05.900Z,21.93
2017-10-17T20:19:35.065Z,24.80
2017-10-17T20:22:04.119Z,25.63
2017-10-17T20:24:32.394Z,28.57
2017-10-17T20:27:00.719Z,28.03
2017-10-17T20:29:29.066Z,27.10
2017-10-17T20:31:57.384Z,22.50
2017-10-17T20:34:26.797Z,23.63
2017-10-17T20:36:55.171Z,23.70
2017-10-17T20:39:25.091Z,23.90
2017-10-17T20:41:54.478Z,22.03
2017-10-17T20:44:22.732Z,21.97
2017-10-17T20:46:50.987Z,23.80
2017-10-17T20:49:19.311Z,21.77
2017-10-17T20:51:47.797Z,22.07
2017-10-17T20:54:17.308Z,22.93
2017-10-17T20:56:45.802Z,25.57
2017-10-17T20:59:15.552Z,24.50
2017-10-17T21:01:44.623Z,23.90
2017-10-17T21:04:12.908Z,22.33
2017-10-17T21:06:41.910Z,25.63
2017-10-17T21:09:10.239Z,24.37
2017-10-17T21:11:39.355Z,23.23
2017-10-17T21:14:07.691Z,25.50
2017-10-17T21:16:36.981Z,23.60
2017-10-17T21:19:05.704Z,22.73
2017-10-17T21:21:35.502Z,23.90
2017-10-17T21:24:03.772Z,24.13
2017-10-17T21:26:32.026Z,27.67
2017-10-17T21:29:00.306Z,27.27
2017-10-17T21:31:28.731Z,26.70
2017-10-17T21:33:58.448Z,28.57
2017-10-17T21:36:27.095Z,27.60
2017-10-17T21:38:55.368Z,26.47
2017-10-17T21:41:23.991Z,26.10
2017-10-17T21:43:53.150Z,26.03
2017-10-17T21:46:21.723Z,25.87
2017-10-17T21:48:50.045Z,24.30
2017-10-17T21:51:19.016Z,22.80
2017-10-17T21:53:47.414Z,25.17
2017-10-17T21:56:15.706Z,23.50
2017-10-17T21:58:43.972Z,24.67
2017-10-17T22:01:13.249Z,26.57
2017-10-17T22:03:41.559Z,27.50
2017-10-17T22:06:11.389Z,24.77
2017-10-17T22:08:39.651Z,24.70
2017-10-17T22:11:07.921Z,25.90
2017-10-17T22:13:37.429Z,23.03
2017-10-17T22:16:06.519Z,27.23
2017-10-17T22:18:37.168Z,27.73
2017-10-17T22:21:06.825Z,27.00
2017-10-17T22:23:36.387Z,29.90
2017-10-17T22:26:05.999Z,30.17
2017-10-17T22:28:35.934Z,30.50
2017-10-17T22:31:04.973Z,29.00
2017-10-17T22:33:35.552Z,28.70
2017-10-17T22:36:05.859Z,29.97
2017-10-17T22:38:34.686Z,32.20
2017-10-17T22:41:02.959Z,36.00
2017-10-17T22:43:32.042Z,33.77
2017-10-17T22:46:02.062Z,34.23
2017-10-17T22:48:30.321Z,32.40
2017-10-17T22:50:58.576Z,31.80
2017-10-17T22:53:28.438Z,29.37
2017-10-17T22:55:57.329Z,33.60
2017-10-17T22:58:26.545Z,34.27
2017-10-17T23:00:55.315Z,36.33
2017-10-17T23:03:23.579Z,34.07
2017-10-17T23:05:53.184Z,32.97
2017-10-17T23:08:22.519Z,34.77
2017-10-17T23:10:50.955Z,34.10
2017-10-17T23:13:19.182Z,35.13
2017-10-17T23:15:47.440Z,35.00
2017-10-17T23:18:27.873Z,35.73
2017-10-17T23:20:58.173Z,33.10
2017-10-17T23:23:26.453Z,35.40
2017-10-17T23:25:55.339Z,32.17
2017-10-17T23:28:24.294Z,33.77
2017-10-17T23:30:53.867Z,33.87
2017-10-17T23:33:23.099Z,34.47
2017-10-17T23:35:52.104Z,32.73
2017-10-17T23:38:20.393Z,32.57
2017-10-17T23:40:50.374Z,32.03
2017-10-17T23:43:18.615Z,32.53
2017-10-17T23:45:46.982Z,35.03
2017-10-17T23:48:15.888Z,34.17
2017-10-17T23:50:45.502Z,33.07
2017-10-17T23:53:14.467Z,33.70
2017-10-17T23:55:42.712Z,31.20
2017-10-17T23:58:11.759Z,32.00
